createdAt,value
2024-03-03T00:00:35.391Z,5.47
2024-03-03T00:01:32.037Z,6.28
2024-03-03T00:02:28.721Z,5.68
2024-03-03T00:03:25.417Z,5.07
2024-03-03T00:04:22.159Z,5.28
2024-03-03T00:05:19.290Z,5.10
2024-03-03T00:06:15.975Z,5.50
2024-03-03T00:07:12.725Z,4.63
2024-03-03T00:08:10.073Z,4.80
2024-03-03T00:09:06.918Z,5.40
2024-03-03T00:10:04.524Z,5.30
2024-03-03T00:11:01.252Z,5.57
2024-03-03T00:11:58.020Z,6.15
2024-03-03T00:12:54.646Z,5.57
2024-03-03T00:13:51.271Z,6.10
2024-03-03T00:14:47.857Z,6.20
2024-03-03T00:15:44.495Z,6.38
2024-03-03T00:16:45.005Z,6.85
2024-03-03T00:17:41.636Z,6.63
2024-03-03T00:18:40.050Z,6.30
2024-03-03T00:19:36.767Z,6.38
2024-03-03T00:20:33.789Z,6.38
2024-03-03T00:21:31.394Z,5.60
2024-03-03T00:22:28.054Z,6.32
2024-03-03T00:23:25.394Z,6.10
2024-03-03T00:24:22.185Z,5.70
2024-03-03T00:25:19.060Z,5.80
2024-03-03T00:26:15.787Z,6.15
2024-03-03T00:27:13.697Z,5.85
2024-03-03T00:28:10.341Z,6.28
2024-03-03T00:29:07.077Z,6.28
2024-03-03T00:30:04.153Z,5.70
2024-03-03T00:31:00.827Z,6.25
2024-03-03T00:31:57.566Z,6.75
2024-03-03T00:32:54.208Z,7.70
2024-03-03T00:33:50.895Z,7.80
2024-03-03T00:34:47.530Z,7.85
2024-03-03T00:35:44.142Z,7.95
2024-03-03T00:36:40.788Z,11.90
2024-03-03T00:37:37.513Z,9.57
2024-03-03T00:38:35.794Z,7.30
2024-03-03T00:39:33.718Z,6.68
2024-03-03T00:40:33.983Z,7.25
2024-03-03T00:41:30.862Z,5.63
2024-03-03T00:42:27.538Z,6.85
2024-03-03T00:43:24.117Z,6.45
2024-03-03T00:44:20.711Z,6.40
2024-03-03T00:45:17.394Z,6.72
2024-03-03T00:46:14.218Z,6.45
2024-03-03T00:47:10.903Z,6.25
2024-03-03T00:48:07.835Z,6.70
2024-03-03T00:49:04.536Z,6.07
2024-03-03T00:50:01.225Z,6.53
2024-03-03T00:50:58.201Z,6.25
2024-03-03T00:51:54.912Z,6.80
2024-03-03T00:52:55.673Z,6.25
2024-03-03T00:53:52.522Z,6.53
2024-03-03T00:54:49.350Z,6.78
2024-03-03T00:55:49.397Z,6.50
2024-03-03T00:56:46.071Z,6.78
2024-03-03T00:57:42.675Z,6.63
2024-03-03T00:58:39.405Z,6.35
2024-03-03T00:59:36.040Z,6.75
2024-03-03T01:00:32.729Z,6.68
2024-03-03T01:01:29.422Z,8.18
2024-03-03T01:02:26.224Z,8.65
2024-03-03T01:03:22.899Z,9.98
2024-03-03T01:04:19.653Z,8.63
2024-03-03T01:05:17.013Z,7.32
2024-03-03T01:06:13.726Z,7.25
2024-03-03T01:07:10.528Z,7.40
2024-03-03T01:08:07.388Z,7.10
2024-03-03T01:09:04.257Z,6.78
2024-03-03T01:10:00.952Z,7.10
2024-03-03T01:10:57.622Z,7.22
2024-03-03T01:11:55.404Z,7.95
2024-03-03T01:12:52.466Z,7.65
2024-03-03T01:13:49.093Z,7.70
2024-03-03T01:14:45.741Z,7.65
2024-03-03T01:15:42.402Z,8.75
2024-03-03T01:16:39.101Z,8.40
2024-03-03T01:17:35.754Z,8.50
2024-03-03T01:18:32.669Z,8.20
2024-03-03T01:19:30.118Z,8.18
2024-03-03T01:20:26.946Z,8.35
2024-03-03T01:21:23.673Z,8.40
2024-03-03T01:22:20.508Z,8.48
2024-03-03T01:23:17.338Z,8.68
2024-03-03T01:24:14.078Z,7.82
2024-03-03T01:25:10.866Z,8.00
2024-03-03T01:26:07.530Z,8.13
2024-03-03T01:27:04.400Z,8.23
2024-03-03T01:28:01.109Z,8.20
2024-03-03T01:28:57.827Z,7.60
2024-03-03T01:29:54.406Z,7.55
2024-03-03T01:30:51.030Z,6.78
2024-03-03T01:31:47.763Z,7.90
2024-03-03T01:32:44.503Z,7.20
2024-03-03T01:33:41.241Z,7.40
2024-03-03T01:34:37.957Z,7.25
2024-03-03T01:35:34.668Z,6.57
2024-03-03T01:36:31.264Z,6.25
2024-03-03T01:37:27.877Z,6.50
2024-03-03T01:38:24.468Z,6.78
2024-03-03T01:39:21.657Z,6.50
2024-03-03T01:40:18.526Z,6.95
2024-03-03T01:41:15.276Z,7.00
2024-03-03T01:42:11.941Z,6.82
2024-03-03T01:43:08.819Z,7.22
2024-03-03T01:44:05.521Z,6.88
2024-03-03T01:45:03.536Z,6.93
2024-03-03T01:46:00.248Z,7.20
2024-03-03T01:46:57.835Z,7.07
2024-03-03T01:47:57.794Z,7.22
2024-03-03T01:48:55.193Z,7.88
2024-03-03T01:49:53.325Z,6.90
2024-03-03T01:50:51.135Z,7.22
2024-03-03T01:51:49.374Z,7.13
2024-03-03T01:52:48.424Z,7.28
2024-03-03T01:53:52.198Z,7.20
2024-03-03T01:54:48.936Z,7.50
2024-03-03T01:55:46.995Z,7.95
2024-03-03T01:56:45.422Z,7.30
2024-03-03T01:57:42.868Z,7.72
2024-03-03T01:58:41.022Z,7.72
2024-03-03T01:59:38.326Z,7.97
2024-03-03T02:00:35.976Z,8.48
2024-03-03T02:01:33.374Z,8.73
2024-03-03T02:02:30.118Z,7.85
2024-03-03T02:03:27.154Z,8.00
2024-03-03T02:04:24.747Z,8.65
2024-03-03T02:05:22.473Z,8.20
2024-03-03T02:06:22.294Z,8.35
2024-03-03T02:07:21.230Z,8.38
2024-03-03T02:08:18.842Z,7.85
2024-03-03T02:09:15.743Z,9.02
2024-03-03T02:10:13.281Z,8.00
2024-03-03T02:11:10.561Z,7.95
2024-03-03T02:12:07.519Z,8.45
2024-03-03T02:13:04.384Z,8.65
2024-03-03T02:14:01.479Z,8.65
2024-03-03T02:14:58.132Z,9.98
2024-03-03T02:15:55.117Z,9.38
2024-03-03T02:16:52.167Z,9.65
2024-03-03T02:17:51.061Z,11.63
2024-03-03T02:18:47.793Z,9.88
2024-03-03T02:19:44.480Z,9.98
2024-03-03T02:20:42.528Z,10.57
2024-03-03T02:21:39.313Z,10.25
2024-03-03T02:22:38.763Z,10.88
2024-03-03T02:23:35.443Z,13.10
2024-03-03T02:24:32.117Z,15.68
2024-03-03T02:25:28.974Z,15.95
2024-03-03T02:26:28.020Z,16.85
2024-03-03T02:27:25.425Z,16.83
2024-03-03T02:28:22.377Z,19.98
2024-03-03T02:29:22.477Z,16.33
2024-03-03T02:30:19.408Z,17.10
2024-03-03T02:31:16.112Z,18.80
2024-03-03T02:32:12.799Z,16.02
2024-03-03T02:33:09.570Z,16.73
2024-03-03T02:34:06.394Z,16.88
2024-03-03T02:35:03.172Z,18.08
2024-03-03T02:35:59.855Z,19.00
2024-03-03T02:36:56.573Z,17.45
2024-03-03T02:37:53.227Z,18.85
2024-03-03T02:38:51.441Z,21.77
2024-03-03T02:39:48.140Z,23.02
2024-03-03T02:40:44.745Z,26.02
2024-03-03T02:41:41.437Z,24.13
2024-03-03T02:42:38.168Z,27.73
2024-03-03T02:43:35.493Z,29.80
2024-03-03T02:44:32.253Z,32.47
2024-03-03T02:45:28.905Z,33.65
2024-03-03T02:46:25.612Z,39.25
2024-03-03T02:47:22.237Z,38.33
2024-03-03T02:48:22.032Z,35.80
2024-03-03T02:49:18.735Z,34.80
2024-03-03T02:50:15.449Z,32.08
2024-03-03T02:51:12.097Z,28.75
2024-03-03T02:52:09.127Z,28.33
2024-03-03T02:53:05.825Z,32.35
2024-03-03T02:54:02.415Z,24.88
2024-03-03T02:54:59.066Z,28.92
2024-03-03T02:55:55.759Z,30.35
2024-03-03T02:56:53.029Z,31.55
2024-03-03T02:57:49.734Z,34.55
2024-03-03T02:58:46.649Z,34.13
2024-03-03T02:59:43.281Z,32.80
2024-03-03T03:00:40.106Z,33.47
2024-03-03T03:01:36.853Z,32.67
2024-03-03T03:02:33.547Z,31.65
2024-03-03T03:03:32.162Z,28.73
2024-03-03T03:04:29.772Z,29.45
2024-03-03T03:05:26.406Z,28.60
2024-03-03T03:06:23.011Z,29.88
2024-03-03T03:07:19.992Z,28.48
2024-03-03T03:08:16.798Z,27.27
2024-03-03T03:09:13.388Z,26.92
2024-03-03T03:10:10.188Z,28.05
2024-03-03T03:11:07.466Z,28.98
2024-03-03T03:12:04.650Z,28.35
2024-03-03T03:13:01.680Z,28.20
2024-03-03T03:13:58.302Z,30.42
2024-03-03T03:14:54.944Z,29.55
2024-03-03T03:15:54.523Z,27.85
2024-03-03T03:16:51.435Z,28.05
2024-03-03T03:17:48.114Z,28.00
2024-03-03T03:18:44.754Z,28.63
2024-03-03T03:19:45.562Z,26.55
2024-03-03T03:20:42.279Z,26.33
2024-03-03T03:21:38.970Z,32.03
2024-03-03T03:22:35.650Z,31.33
2024-03-03T03:23:32.295Z,29.33
2024-03-03T03:24:30.552Z,30.50
2024-03-03T03:25:27.329Z,33.65
2024-03-03T03:26:24.111Z,28.80
2024-03-03T03:27:20.863Z,33.47
2024-03-03T03:28:17.657Z,26.73
2024-03-03T03:29:14.548Z,24.83
2024-03-03T03:30:11.656Z,28.90
2024-03-03T03:31:08.360Z,28.73
2024-03-03T03:32:05.582Z,28.10
2024-03-03T03:33:02.249Z,25.92
2024-03-03T03:33:58.898Z,24.83
2024-03-03T03:34:56.026Z,28.92
2024-03-03T03:35:52.703Z,25.33
2024-03-03T03:36:49.526Z,23.52
2024-03-03T03:37:46.351Z,22.67
2024-03-03T03:38:43.020Z,24.00
2024-03-03T03:39:41.026Z,18.90
2024-03-03T03:40:37.874Z,23.30
2024-03-03T03:41:34.458Z,25.45
2024-03-03T03:42:31.128Z,27.38
2024-03-03T03:43:27.720Z,22.38
2024-03-03T03:44:24.402Z,24.23
2024-03-03T03:45:21.122Z,25.05
2024-03-03T03:46:17.789Z,26.15
2024-03-03T03:47:14.481Z,30.35
2024-03-03T03:48:11.121Z,24.50
2024-03-03T03:49:10.717Z,24.25
2024-03-03T03:50:08.417Z,25.80
2024-03-03T03:51:05.342Z,28.00
2024-03-03T03:52:05.323Z,23.90
2024-03-03T03:53:02.132Z,23.83
2024-03-03T03:53:59.345Z,22.05
2024-03-03T03:54:56.011Z,20.35
2024-03-03T03:55:52.698Z,18.45
2024-03-03T03:56:49.405Z,18.85
2024-03-03T03:57:46.066Z,18.00
2024-03-03T03:58:42.682Z,19.48
2024-03-03T03:59:39.351Z,17.42
2024-03-03T04:00:36.025Z,17.15
2024-03-03T04:01:32.808Z,17.52
2024-03-03T04:02:29.516Z,17.08
2024-03-03T04:03:26.124Z,19.23
2024-03-03T04:04:23.321Z,17.38
2024-03-03T04:05:20.182Z,21.42
2024-03-03T04:06:16.757Z,23.30
2024-03-03T04:07:13.469Z,25.90
2024-03-03T04:08:10.120Z,25.75
2024-03-03T04:09:06.899Z,27.98
2024-03-03T04:10:03.678Z,24.55
2024-03-03T04:11:00.493Z,22.23
2024-03-03T04:11:58.044Z,24.15
2024-03-03T04:12:57.269Z,22.88
2024-03-03T04:13:54.122Z,21.00
2024-03-03T04:14:50.764Z,21.00
2024-03-03T04:15:47.596Z,25.95
2024-03-03T04:16:45.259Z,22.40
2024-03-03T04:17:42.683Z,21.05
2024-03-03T04:18:39.470Z,19.85
2024-03-03T04:19:36.167Z,17.48
2024-03-03T04:20:32.955Z,18.23
2024-03-03T04:21:29.615Z,19.75
2024-03-03T04:22:26.363Z,20.55
2024-03-03T04:23:23.005Z,23.17
2024-03-03T04:24:19.643Z,22.23
2024-03-03T04:25:16.562Z,23.08
2024-03-03T04:26:13.758Z,22.55
2024-03-03T04:27:10.422Z,23.10
2024-03-03T04:28:07.413Z,24.38
2024-03-03T04:29:04.133Z,25.40
2024-03-03T04:30:00.791Z,22.88
2024-03-03T04:30:57.411Z,26.38
2024-03-03T04:31:54.798Z,25.27
2024-03-03T04:32:51.427Z,26.13
2024-03-03T04:33:49.204Z,23.42
2024-03-03T04:34:45.904Z,24.40
2024-03-03T04:35:43.882Z,27.77
2024-03-03T04:36:47.113Z,25.45
2024-03-03T04:37:43.811Z,24.08
2024-03-03T04:38:43.557Z,26.77
2024-03-03T04:39:40.335Z,23.30
2024-03-03T04:40:36.948Z,23.45
2024-03-03T04:41:33.629Z,25.70
2024-03-03T04:42:30.226Z,22.38
2024-03-03T04:43:26.943Z,29.17
2024-03-03T04:44:23.796Z,26.25
2024-03-03T04:45:20.533Z,26.35
2024-03-03T04:46:17.196Z,29.55
2024-03-03T04:47:13.932Z,25.27
2024-03-03T04:48:11.077Z,31.08
2024-03-03T04:49:07.741Z,26.15
2024-03-03T04:50:04.834Z,29.15
2024-03-03T04:51:01.767Z,26.60
2024-03-03T04:51:58.401Z,25.15
2024-03-03T04:52:55.016Z,24.70
2024-03-03T04:53:51.604Z,23.05
2024-03-03T04:54:48.269Z,21.48
2024-03-03T04:55:45.082Z,21.00
2024-03-03T04:56:42.144Z,21.63
2024-03-03T04:57:39.193Z,23.83
2024-03-03T04:58:35.903Z,25.75
2024-03-03T04:59:32.677Z,23.95
2024-03-03T05:00:29.389Z,21.30
2024-03-03T05:01:26.209Z,27.15
2024-03-03T05:02:22.970Z,22.27
2024-03-03T05:03:19.614Z,28.40
2024-03-03T05:04:16.315Z,31.13
2024-03-03T05:05:13.067Z,24.65
2024-03-03T05:06:09.719Z,38.72
2024-03-03T05:07:06.426Z,27.15
2024-03-03T05:08:04.122Z,28.92
2024-03-03T05:09:00.858Z,24.23
2024-03-03T05:09:57.490Z,35.40
2024-03-03T05:10:54.214Z,25.35
2024-03-03T05:11:50.993Z,27.40
2024-03-03T05:12:47.912Z,24.65
2024-03-03T05:13:44.554Z,24.48
2024-03-03T05:14:41.231Z,30.48
2024-03-03T05:15:37.891Z,29.70
2024-03-03T05:16:34.672Z,24.35
2024-03-03T05:17:31.267Z,25.60
2024-03-03T05:18:27.889Z,22.55
2024-03-03T05:19:24.689Z,28.88
2024-03-03T05:20:21.352Z,23.08
2024-03-03T05:21:18.007Z,26.13
2024-03-03T05:22:14.746Z,27.25
2024-03-03T05:23:11.478Z,22.70
2024-03-03T05:24:08.169Z,23.38
2024-03-03T05:25:09.935Z,22.52
2024-03-03T05:26:06.533Z,24.88
2024-03-03T05:27:04.358Z,22.00
2024-03-03T05:28:01.034Z,27.23
2024-03-03T05:28:58.929Z,24.33
2024-03-03T05:29:55.580Z,23.27
2024-03-03T05:30:53.323Z,25.80
2024-03-03T05:31:50.320Z,21.60
2024-03-03T05:32:47.065Z,27.58
2024-03-03T05:33:43.806Z,25.20
2024-03-03T05:34:40.535Z,24.40
2024-03-03T05:35:40.095Z,23.30
2024-03-03T05:36:37.436Z,22.92
2024-03-03T05:37:34.073Z,23.75
2024-03-03T05:38:31.166Z,20.90
2024-03-03T05:39:28.424Z,23.33
2024-03-03T05:40:25.158Z,22.58
2024-03-03T05:41:26.915Z,19.90
2024-03-03T05:42:23.887Z,23.08
2024-03-03T05:43:20.657Z,25.92
2024-03-03T05:44:17.536Z,22.33
2024-03-03T05:45:14.195Z,29.08
2024-03-03T05:46:10.857Z,24.92
2024-03-03T05:47:07.581Z,25.27
2024-03-03T05:48:04.617Z,21.73
2024-03-03T05:49:01.780Z,19.65
2024-03-03T05:49:58.393Z,21.15
2024-03-03T05:50:55.070Z,19.38
2024-03-03T05:51:51.705Z,17.05
2024-03-03T05:52:48.345Z,23.52
2024-03-03T05:53:45.157Z,24.90
2024-03-03T05:54:41.874Z,23.02
2024-03-03T05:55:38.512Z,29.23
2024-03-03T05:56:38.707Z,26.27
2024-03-03T05:57:35.760Z,28.45
2024-03-03T05:58:32.386Z,24.05
2024-03-03T05:59:28.976Z,24.13
2024-03-03T06:00:25.639Z,23.90
2024-03-03T06:01:22.447Z,23.60
2024-03-03T06:02:19.194Z,21.15
2024-03-03T06:03:15.895Z,21.23
2024-03-03T06:04:12.780Z,22.48
2024-03-03T06:05:09.643Z,24.67
2024-03-03T06:06:08.075Z,21.48
2024-03-03T06:07:05.704Z,21.92
2024-03-03T06:08:04.625Z,21.27
2024-03-03T06:09:01.322Z,23.98
2024-03-03T06:09:58.007Z,24.23
2024-03-03T06:10:55.226Z,24.85
2024-03-03T06:11:51.952Z,24.90
2024-03-03T06:12:48.629Z,29.33
2024-03-03T06:13:45.635Z,21.77
2024-03-03T06:14:42.938Z,25.40
2024-03-03T06:15:39.903Z,27.52
2024-03-03T06:16:38.737Z,23.67
2024-03-03T06:17:35.428Z,25.88
2024-03-03T06:18:32.122Z,28.10
2024-03-03T06:19:28.792Z,24.55
2024-03-03T06:20:25.439Z,23.77
2024-03-03T06:21:22.815Z,21.48
2024-03-03T06:22:19.789Z,28.70
2024-03-03T06:23:17.009Z,23.35
2024-03-03T06:24:13.699Z,24.20
2024-03-03T06:25:11.168Z,31.48
2024-03-03T06:26:07.938Z,22.83
2024-03-03T06:27:05.091Z,22.15
2024-03-03T06:28:01.780Z,25.67
2024-03-03T06:28:58.561Z,22.13
2024-03-03T06:29:55.251Z,27.67
2024-03-03T06:30:51.891Z,24.67
2024-03-03T06:31:48.534Z,25.20
2024-03-03T06:32:45.421Z,33.28
2024-03-03T06:33:42.214Z,28.30
2024-03-03T06:34:39.306Z,30.52
2024-03-03T06:35:35.950Z,42.72
2024-03-03T06:36:32.952Z,37.05
2024-03-03T06:37:32.196Z,29.83
2024-03-03T06:38:29.027Z,28.98
2024-03-03T06:39:25.687Z,24.13
2024-03-03T06:40:22.548Z,33.22
2024-03-03T06:41:19.229Z,28.58
2024-03-03T06:42:15.817Z,32.10
2024-03-03T06:43:12.482Z,30.45
2024-03-03T06:44:09.214Z,33.30
2024-03-03T06:45:06.868Z,28.67
2024-03-03T06:46:04.304Z,26.85
2024-03-03T06:47:00.921Z,24.17
2024-03-03T06:47:57.522Z,27.80
2024-03-03T06:48:54.202Z,26.90
2024-03-03T06:49:51.225Z,26.05
2024-03-03T06:50:47.865Z,24.88
2024-03-03T06:51:44.590Z,29.70
2024-03-03T06:52:41.296Z,27.33
2024-03-03T06:53:41.238Z,27.23
2024-03-03T06:54:37.875Z,25.73
2024-03-03T06:55:34.551Z,23.75
2024-03-03T06:56:31.175Z,23.33
2024-03-03T06:57:28.191Z,24.75
2024-03-03T06:58:24.872Z,23.17
2024-03-03T06:59:21.808Z,22.55
2024-03-03T07:00:19.503Z,21.95
2024-03-03T07:01:16.255Z,22.83
2024-03-03T07:02:12.987Z,22.98
2024-03-03T07:03:09.606Z,22.67
2024-03-03T07:04:29.158Z,21.52
2024-03-03T07:05:25.972Z,21.95
2024-03-03T07:06:22.585Z,22.70
2024-03-03T07:07:19.221Z,20.70
2024-03-03T07:08:15.997Z,24.48
2024-03-03T07:09:12.621Z,22.20
2024-03-03T07:10:11.033Z,23.83
2024-03-03T07:11:08.014Z,22.73
2024-03-03T07:12:05.080Z,21.40
2024-03-03T07:13:02.291Z,24.38
2024-03-03T07:13:58.972Z,21.20
2024-03-03T07:14:55.664Z,23.00
2024-03-03T07:15:52.287Z,22.80
2024-03-03T07:16:49.376Z,21.40
2024-03-03T07:17:46.126Z,23.10
2024-03-03T07:18:42.731Z,21.27
2024-03-03T07:19:39.338Z,22.25
2024-03-03T07:20:35.920Z,22.23
2024-03-03T07:21:32.808Z,24.48
2024-03-03T07:22:34.444Z,22.05
2024-03-03T07:23:31.043Z,27.80
2024-03-03T07:24:28.259Z,29.85
2024-03-03T07:25:27.188Z,37.28
2024-03-03T07:26:23.948Z,28.20
2024-03-03T07:27:20.519Z,28.05
2024-03-03T07:28:17.112Z,27.52
2024-03-03T07:29:13.741Z,27.88
2024-03-03T07:30:10.892Z,30.40
2024-03-03T07:31:07.556Z,27.85
2024-03-03T07:32:04.475Z,28.75
2024-03-03T07:33:01.144Z,28.20
2024-03-03T07:33:58.497Z,27.10
2024-03-03T07:34:58.050Z,24.60
2024-03-03T07:35:54.696Z,25.63
2024-03-03T07:36:52.294Z,21.45
2024-03-03T07:37:49.037Z,21.60
2024-03-03T07:38:45.708Z,22.08
2024-03-03T07:39:43.600Z,22.23
2024-03-03T07:40:40.215Z,23.02
2024-03-03T07:41:37.694Z,23.30
2024-03-03T07:42:34.454Z,21.25
2024-03-03T07:43:31.621Z,20.77
2024-03-03T07:44:28.311Z,19.27
2024-03-03T07:45:24.946Z,18.25
2024-03-03T07:46:21.708Z,18.88
2024-03-03T07:47:18.452Z,18.50
2024-03-03T07:48:15.043Z,21.73
2024-03-03T07:49:12.151Z,23.55
2024-03-03T07:50:09.385Z,23.00
2024-03-03T07:51:07.680Z,25.30
2024-03-03T07:52:04.561Z,22.85
2024-03-03T07:53:01.368Z,23.65
2024-03-03T07:53:59.361Z,22.95
2024-03-03T07:54:56.052Z,21.73
2024-03-03T07:55:52.694Z,22.30
2024-03-03T07:56:49.475Z,23.88
2024-03-03T07:57:46.099Z,22.77
2024-03-03T07:58:42.749Z,23.77
2024-03-03T07:59:40.346Z,20.95
2024-03-03T08:00:37.932Z,20.92
2024-03-03T08:01:36.575Z,21.05
2024-03-03T08:02:33.754Z,19.42
2024-03-03T08:03:31.405Z,20.83
2024-03-03T08:04:28.815Z,22.98
2024-03-03T08:05:25.476Z,20.88
2024-03-03T08:06:23.352Z,20.98
2024-03-03T08:07:21.089Z,22.27
2024-03-03T08:08:17.880Z,21.55
2024-03-03T08:09:14.598Z,20.38
2024-03-03T08:10:11.389Z,20.33
2024-03-03T08:11:08.124Z,20.33
2024-03-03T08:12:08.151Z,21.45
2024-03-03T08:13:05.375Z,21.40
2024-03-03T08:14:05.790Z,19.88
2024-03-03T08:15:04.620Z,20.85
2024-03-03T08:16:01.317Z,19.52
2024-03-03T08:16:58.053Z,20.77
2024-03-03T08:17:55.786Z,19.55
2024-03-03T08:18:54.573Z,20.42
2024-03-03T08:19:51.242Z,20.25
2024-03-03T08:20:47.834Z,20.55
2024-03-03T08:21:44.558Z,20.23
2024-03-03T08:22:44.542Z,19.90
2024-03-03T08:23:41.116Z,20.85
2024-03-03T08:24:37.690Z,20.58
2024-03-03T08:25:34.432Z,19.77
2024-03-03T08:26:31.158Z,19.35
2024-03-03T08:27:27.943Z,22.30
2024-03-03T08:28:24.748Z,21.30
2024-03-03T08:29:21.413Z,22.67
2024-03-03T08:30:18.078Z,22.98
2024-03-03T08:31:14.861Z,20.52
2024-03-03T08:32:11.547Z,19.25
2024-03-03T08:33:08.777Z,20.48
2024-03-03T08:34:05.570Z,20.75
2024-03-03T08:35:04.362Z,21.33
2024-03-03T08:36:00.964Z,21.20
2024-03-03T08:36:57.598Z,21.27
2024-03-03T08:37:54.678Z,20.50
2024-03-03T08:38:51.337Z,20.55
2024-03-03T08:39:47.981Z,20.98
2024-03-03T08:40:45.689Z,21.45
2024-03-03T08:41:43.203Z,20.45
2024-03-03T08:42:39.878Z,18.98
2024-03-03T08:43:36.499Z,18.08
2024-03-03T08:44:33.172Z,19.75
2024-03-03T08:45:29.897Z,16.50
2024-03-03T08:46:26.634Z,18.45
2024-03-03T08:47:23.339Z,19.83
2024-03-03T08:48:19.974Z,18.98
2024-03-03T08:49:16.632Z,20.08
2024-03-03T08:50:15.558Z,20.25
2024-03-03T08:51:12.482Z,19.60
2024-03-03T08:52:10.517Z,20.67
2024-03-03T08:53:07.349Z,20.38
2024-03-03T08:54:04.057Z,19.95
2024-03-03T08:55:00.816Z,21.05
2024-03-03T08:55:57.449Z,22.27
2024-03-03T08:56:54.101Z,21.85
2024-03-03T08:57:51.993Z,22.98
2024-03-03T08:58:48.755Z,22.25
2024-03-03T08:59:45.380Z,24.27
2024-03-03T09:00:42.098Z,22.98
2024-03-03T09:01:39.023Z,22.80
2024-03-03T09:02:35.714Z,23.73
2024-03-03T09:03:32.977Z,24.15
2024-03-03T09:04:31.086Z,23.67
2024-03-03T09:05:27.987Z,25.20
2024-03-03T09:06:24.736Z,24.60
2024-03-03T09:07:21.758Z,24.25
2024-03-03T09:08:18.696Z,26.00
2024-03-03T09:09:17.425Z,25.63
2024-03-03T09:10:14.090Z,24.65
2024-03-03T09:11:11.454Z,25.05
2024-03-03T09:12:08.502Z,25.75
2024-03-03T09:13:05.623Z,26.02
2024-03-03T09:14:02.460Z,26.38
2024-03-03T09:14:59.184Z,27.85
2024-03-03T09:15:55.863Z,26.42
2024-03-03T09:16:52.637Z,24.08
2024-03-03T09:17:49.326Z,22.15
2024-03-03T09:18:46.030Z,23.27
2024-03-03T09:19:42.868Z,22.95
2024-03-03T09:20:39.514Z,23.90
2024-03-03T09:21:37.871Z,23.63
2024-03-03T09:22:37.200Z,24.00
2024-03-03T09:23:34.813Z,21.70
2024-03-03T09:24:31.408Z,22.50
2024-03-03T09:25:28.340Z,23.40
2024-03-03T09:26:25.044Z,23.35
2024-03-03T09:27:23.949Z,23.33
2024-03-03T09:28:20.652Z,22.17
2024-03-03T09:29:17.477Z,21.98
2024-03-03T09:30:14.383Z,22.92
2024-03-03T09:31:11.098Z,21.42
2024-03-03T09:32:07.736Z,21.75
2024-03-03T09:33:04.485Z,21.98
2024-03-03T09:34:01.249Z,22.52
2024-03-03T09:34:57.889Z,23.05
2024-03-03T09:35:54.550Z,22.25
2024-03-03T09:36:51.446Z,23.95
2024-03-03T09:37:48.915Z,23.67
2024-03-03T09:38:46.765Z,21.33
2024-03-03T09:39:43.523Z,22.23
2024-03-03T09:40:40.355Z,23.58
2024-03-03T09:41:37.168Z,25.08
2024-03-03T09:42:34.412Z,23.50
2024-03-03T09:43:44.106Z,24.75
2024-03-03T09:44:44.814Z,26.40
2024-03-03T09:45:41.891Z,24.55
2024-03-03T09:46:39.880Z,24.30
2024-03-03T09:47:38.077Z,23.48
2024-03-03T09:48:36.130Z,24.83
2024-03-03T09:49:34.203Z,23.15
2024-03-03T09:50:31.771Z,24.10
2024-03-03T09:51:29.744Z,23.52
2024-03-03T09:52:29.060Z,23.20
2024-03-03T09:53:27.214Z,22.73
2024-03-03T09:54:24.389Z,22.85
2024-03-03T09:55:21.623Z,22.75
2024-03-03T09:56:18.809Z,23.13
2024-03-03T09:57:15.838Z,22.60
2024-03-03T09:58:13.611Z,23.20
2024-03-03T09:59:10.364Z,22.67
2024-03-03T10:00:08.356Z,24.23
2024-03-03T10:01:08.112Z,21.90
2024-03-03T10:02:09.207Z,21.63
2024-03-03T10:03:08.448Z,22.50
2024-03-03T10:04:07.614Z,23.35
2024-03-03T10:05:05.803Z,24.33
2024-03-03T10:06:09.423Z,22.75
2024-03-03T10:07:09.155Z,22.50
2024-03-03T10:08:06.558Z,23.08
2024-03-03T10:09:05.931Z,21.67
2024-03-03T10:10:07.069Z,24.35
2024-03-03T10:11:05.529Z,24.30
2024-03-03T10:12:06.103Z,24.63
2024-03-03T10:13:09.441Z,25.10
2024-03-03T10:14:06.468Z,25.63
2024-03-03T10:15:05.954Z,26.30
2024-03-03T10:16:04.538Z,24.25
2024-03-03T10:17:02.926Z,24.13
2024-03-03T10:18:01.694Z,23.45
2024-03-03T10:19:03.344Z,24.20
2024-03-03T10:20:07.620Z,23.63
2024-03-03T10:21:04.641Z,24.90
2024-03-03T10:22:01.307Z,23.92
2024-03-03T10:22:58.031Z,21.67
2024-03-03T10:24:27.977Z,23.95
2024-03-03T10:25:26.291Z,21.83
2024-03-03T10:26:23.724Z,24.15
2024-03-03T10:27:22.503Z,23.67
2024-03-03T10:28:19.249Z,23.52
2024-03-03T10:29:20.627Z,23.27
2024-03-03T10:30:24.523Z,23.80
2024-03-03T10:31:22.104Z,23.67
2024-03-03T10:32:19.165Z,23.70
2024-03-03T10:33:16.012Z,23.10
2024-03-03T10:34:13.103Z,23.40
2024-03-03T10:35:14.508Z,24.90
2024-03-03T10:36:13.405Z,24.00
2024-03-03T10:37:12.710Z,25.23
2024-03-03T10:38:10.763Z,25.35
2024-03-03T10:39:11.024Z,26.58
2024-03-03T10:40:14.325Z,27.60
2024-03-03T10:41:11.150Z,29.23
2024-03-03T10:42:11.880Z,28.38
2024-03-03T10:43:09.291Z,30.38
2024-03-03T10:44:08.365Z,28.83
2024-03-03T10:45:23.751Z,29.35
2024-03-03T10:46:42.512Z,30.45
2024-03-03T10:47:39.210Z,30.00
2024-03-03T10:48:35.869Z,28.25
2024-03-03T10:49:33.363Z,30.60
2024-03-03T10:50:30.033Z,30.83
2024-03-03T10:51:26.856Z,30.45
2024-03-03T10:52:25.925Z,30.50
2024-03-03T10:53:22.944Z,30.52
2024-03-03T10:54:19.784Z,30.40
2024-03-03T10:55:17.394Z,30.33
2024-03-03T10:56:15.217Z,29.05
2024-03-03T10:57:13.635Z,27.95
2024-03-03T10:58:11.575Z,28.63
2024-03-03T10:59:11.045Z,28.20
2024-03-03T11:00:15.507Z,27.70
2024-03-03T11:01:15.557Z,28.08
2024-03-03T11:02:15.124Z,27.42
2024-03-03T11:03:15.971Z,29.23
2024-03-03T11:04:15.100Z,27.50
2024-03-03T11:05:14.478Z,26.02
2024-03-03T11:06:12.570Z,25.73
2024-03-03T11:07:11.278Z,26.45
2024-03-03T11:08:12.238Z,27.20
2024-03-03T11:09:10.922Z,27.02
2024-03-03T11:10:08.451Z,27.27
2024-03-03T11:11:09.111Z,24.15
2024-03-03T11:12:07.635Z,24.85
2024-03-03T11:13:06.133Z,25.73
2024-03-03T11:14:23.680Z,25.00
2024-03-03T11:15:22.853Z,25.85
2024-03-03T11:16:20.357Z,25.42
2024-03-03T11:17:21.126Z,24.30
2024-03-03T11:18:22.255Z,25.85
2024-03-03T11:19:28.317Z,25.55
2024-03-03T11:20:33.468Z,25.33
2024-03-03T11:21:42.430Z,24.60
2024-03-03T11:22:46.502Z,22.67
2024-03-03T11:23:53.074Z,23.25
2024-03-03T11:25:02.932Z,25.25
2024-03-03T11:26:32.137Z,22.98
2024-03-03T11:27:30.471Z,24.83
2024-03-03T11:28:28.603Z,24.85
2024-03-03T11:29:26.264Z,24.88
2024-03-03T11:30:23.711Z,25.45
2024-03-03T11:31:20.404Z,23.20
2024-03-03T11:32:18.063Z,23.30
2024-03-03T11:33:15.589Z,22.20
2024-03-03T11:34:14.959Z,21.08
2024-03-03T11:35:13.009Z,23.13
2024-03-03T11:36:10.481Z,24.60
2024-03-03T11:37:10.041Z,23.48
2024-03-03T11:38:08.830Z,17.67
2024-03-03T11:39:15.508Z,15.07
2024-03-03T11:40:20.338Z,14.77
2024-03-03T11:41:18.802Z,19.70
2024-03-03T11:42:28.251Z,18.05
2024-03-03T11:43:26.988Z,16.55
2024-03-03T11:44:35.998Z,12.32
2024-03-03T11:45:44.599Z,14.95
2024-03-03T11:46:51.728Z,16.17
2024-03-03T11:47:49.080Z,15.10
2024-03-03T11:48:45.891Z,13.18
2024-03-03T11:49:43.939Z,18.23
2024-03-03T11:50:41.221Z,21.25
2024-03-03T11:51:38.509Z,23.25
2024-03-03T11:52:39.663Z,23.95
2024-03-03T11:53:36.780Z,23.77
2024-03-03T11:54:38.452Z,25.38
2024-03-03T11:55:42.006Z,26.67
2024-03-03T11:56:51.356Z,24.63
2024-03-03T11:57:50.713Z,24.95
2024-03-03T11:58:48.256Z,24.98
2024-03-03T11:59:46.908Z,22.75
2024-03-03T12:00:43.719Z,18.52
2024-03-03T12:01:47.154Z,17.38
2024-03-03T12:02:45.421Z,18.40
2024-03-03T12:03:42.802Z,20.08
2024-03-03T12:04:39.465Z,18.67
2024-03-03T12:05:36.169Z,19.73
2024-03-03T12:06:32.833Z,19.88
2024-03-03T12:07:29.773Z,22.15
2024-03-03T12:08:27.225Z,22.27
2024-03-03T12:09:24.624Z,19.52
2024-03-03T12:10:24.062Z,19.85
2024-03-03T12:11:20.932Z,18.88
2024-03-03T12:12:18.211Z,21.08
2024-03-03T12:13:14.887Z,22.73
2024-03-03T12:14:11.584Z,22.48
2024-03-03T12:15:09.611Z,22.50
2024-03-03T12:16:06.668Z,22.67
2024-03-03T12:17:03.484Z,21.15
2024-03-03T12:18:01.437Z,18.90
2024-03-03T12:18:58.224Z,19.45
2024-03-03T12:19:58.216Z,17.55
2024-03-03T12:20:55.090Z,16.02
2024-03-03T12:21:52.401Z,14.00
2024-03-03T12:22:51.019Z,10.82
2024-03-03T12:23:47.834Z,9.27
2024-03-03T12:24:54.036Z,5.95
2024-03-03T12:25:50.801Z,7.47
2024-03-03T12:26:47.798Z,7.30
2024-03-03T12:27:50.408Z,6.32
2024-03-03T12:28:47.248Z,5.40